createdAt,value
2018-10-09T00:00:30.152Z,97.20
2018-10-09T00:02:59.665Z,97.70
2018-10-09T00:05:29.520Z,97.30
2018-10-09T00:07:59.315Z,96.80
2018-10-09T00:10:28.908Z,97.10
2018-10-09T00:12:58.715Z,97.20
2018-10-09T00:15:28.299Z,97.30
2018-10-09T00:17:57.960Z,97.50
2018-10-09T00:20:28.105Z,97.50
2018-10-09T00:22:59.214Z,97.70
2018-10-09T00:25:28.771Z,97.60
2018-10-09T00:27:58.644Z,96.90
2018-10-09T00:30:28.475Z,97.40
2018-10-09T00:32:58.110Z,97.70
2018-10-09T00:35:27.779Z,97.60
2018-10-09T00:37:57.481Z,97.70
2018-10-09T00:40:27.151Z,97.60
2018-10-09T00:42:56.709Z,97.40
2018-10-09T00:45:26.374Z,97.30
2018-10-09T00:47:55.929Z,97.70
2018-10-09T00:50:25.602Z,97.50
2018-10-09T00:52:55.210Z,98.10
2018-10-09T00:55:25.691Z,98.00
2018-10-09T00:57:56.521Z,98.60
2018-10-09T01:00:27.370Z,97.90
2018-10-09T01:02:57.972Z,97.80
2018-10-09T01:05:27.593Z,97.60
2018-10-09T01:07:57.369Z,97.90
2018-10-09T01:10:27.001Z,98.20
2018-10-09T01:12:56.744Z,98.00
2018-10-09T01:15:26.500Z,97.40
2018-10-09T01:17:56.289Z,97.10
2018-10-09T01:20:27.895Z,97.40
2018-10-09T01:22:57.504Z,97.60
2018-10-09T01:25:27.254Z,98.20
2018-10-09T01:27:56.820Z,98.00
2018-10-09T01:30:26.555Z,98.20
2018-10-09T01:32:56.151Z,98.50
2018-10-09T01:35:25.935Z,98.90
2018-10-09T01:37:55.546Z,97.80
2018-10-09T01:40:25.141Z,97.70
2018-10-09T01:42:54.852Z,97.60
2018-10-09T01:45:24.387Z,97.40
2018-10-09T01:47:54.171Z,97.80
2018-10-09T01:50:23.771Z,97.70
2018-10-09T01:52:53.716Z,97.70
2018-10-09T01:55:23.276Z,97.60
2018-10-09T01:57:52.799Z,97.80
2018-10-09T02:00:22.320Z,97.60
2018-10-09T02:02:51.877Z,97.90
2018-10-09T02:05:21.543Z,97.90
2018-10-09T02:07:52.095Z,98.30
2018-10-09T02:10:22.876Z,98.90
2018-10-09T02:12:52.416Z,99.20
2018-10-09T02:15:22.085Z,99.10
2018-10-09T02:17:51.827Z,98.90
2018-10-09T02:20:21.482Z,98.50
2018-10-09T02:22:51.081Z,98.50
2018-10-09T02:25:20.618Z,98.60
2018-10-09T02:27:50.232Z,98.60
2018-10-09T02:30:19.736Z,98.50
2018-10-09T02:32:49.275Z,98.90
2018-10-09T02:35:18.892Z,99.00
2018-10-09T02:37:48.458Z,99.10
2018-10-09T02:40:18.036Z,99.20
2018-10-09T02:42:47.707Z,98.60
2018-10-09T02:45:17.258Z,98.90
2018-10-09T02:47:46.798Z,99.10
2018-10-09T02:50:16.533Z,98.80
2018-10-09T02:52:46.131Z,98.70
2018-10-09T02:55:15.651Z,99.00
2018-10-09T02:57:45.213Z,99.10
2018-10-09T03:00:14.788Z,98.90
2018-10-09T03:02:44.488Z,99.00
2018-10-09T03:05:14.026Z,99.30
2018-10-09T03:07:44.776Z,99.30
2018-10-09T03:10:14.928Z,99.00
2018-10-09T03:12:44.786Z,99.40
2018-10-09T03:15:14.736Z,99.10
2018-10-09T03:17:45.110Z,99.20
2018-10-09T03:20:14.792Z,98.90
2018-10-09T03:22:44.436Z,98.80
2018-10-09T03:25:14.036Z,99.20
2018-10-09T03:27:43.678Z,99.00
2018-10-09T03:30:13.428Z,98.90
2018-10-09T03:32:43.023Z,99.10
2018-10-09T03:35:12.715Z,99.40
2018-10-09T03:37:42.285Z,99.00
2018-10-09T03:40:11.866Z,98.40
2018-10-09T03:42:41.658Z,98.50
2018-10-09T03:45:11.331Z,98.40
2018-10-09T03:47:40.872Z,99.00
2018-10-09T03:50:10.471Z,98.80
2018-10-09T03:52:40.038Z,98.50
2018-10-09T03:55:09.706Z,98.90
2018-10-09T03:57:39.352Z,98.90
2018-10-09T04:00:09.230Z,99.00
2018-10-09T04:02:39.063Z,99.10
2018-10-09T04:05:08.911Z,98.60
2018-10-09T04:07:38.740Z,99.20
2018-10-09T04:10:08.392Z,98.70
2018-10-09T04:12:38.094Z,99.10
2018-10-09T04:15:07.967Z,99.40
2018-10-09T04:17:37.846Z,99.40
2018-10-09T04:20:08.257Z,99.60
2018-10-09T04:22:37.983Z,99.70
2018-10-09T04:25:08.337Z,99.90
2018-10-09T04:27:38.994Z,99.70
2018-10-09T04:30:09.668Z,99.90
2018-10-09T04:32:39.347Z,99.60
2018-10-09T04:35:08.977Z,99.40
2018-10-09T04:37:38.596Z,99.50
2018-10-09T04:40:08.450Z,99.50
2018-10-09T04:42:38.073Z,99.80
2018-10-09T04:45:08.094Z,99.70
2018-10-09T04:47:37.743Z,99.90
2018-10-09T04:50:07.391Z,99.90
2018-10-09T04:52:37.020Z,99.90
2018-10-09T04:55:06.707Z,99.90
2018-10-09T04:57:36.297Z,99.90
2018-10-09T05:00:06.242Z,99.90
2018-10-09T05:02:35.963Z,99.50
2018-10-09T05:05:06.065Z,99.20
2018-10-09T05:07:35.652Z,99.70
2018-10-09T05:10:05.562Z,99.70
2018-10-09T05:12:35.245Z,99.90
2018-10-09T05:15:04.982Z,99.90
2018-10-09T05:17:34.956Z,99.50
2018-10-09T05:20:05.743Z,99.90
2018-10-09T05:22:35.304Z,99.90
2018-10-09T05:25:05.437Z,99.90
2018-10-09T05:27:36.482Z,99.70
2018-10-09T05:30:06.267Z,99.90
2018-10-09T05:32:35.967Z,99.90
2018-10-09T05:35:05.734Z,99.90
2018-10-09T05:37:36.610Z,99.90
2018-10-09T05:45:03.205Z,99.90
2018-10-09T05:47:32.845Z,99.90
2018-10-09T05:50:02.398Z,99.90
2018-10-09T05:52:32.179Z,99.90
2018-10-09T05:55:02.203Z,99.90
2018-10-09T05:57:31.775Z,99.90
2018-10-09T06:00:01.331Z,99.90
2018-10-09T06:02:30.956Z,99.90
2018-10-09T06:05:00.658Z,99.90
2018-10-09T06:07:30.461Z,99.90
2018-10-09T06:10:00.162Z,99.90
2018-10-09T06:12:29.824Z,99.90
2018-10-09T06:14:59.412Z,99.90
2018-10-09T06:17:29.002Z,99.90
2018-10-09T06:19:58.777Z,99.90
2018-10-09T06:22:28.504Z,99.90
2018-10-09T06:24:58.087Z,99.90
2018-10-09T06:27:27.806Z,99.90
2018-10-09T06:29:57.475Z,99.90
2018-10-09T06:32:27.223Z,99.90
2018-10-09T06:34:56.827Z,99.90
2018-10-09T06:37:26.410Z,99.90
2018-10-09T06:39:56.844Z,99.90
2018-10-09T06:47:23.630Z,99.90
2018-10-09T06:49:53.496Z,99.90
2018-10-09T06:52:23.236Z,99.90
2018-10-09T06:54:52.978Z,99.90
2018-10-09T06:57:22.581Z,99.90
2018-10-09T06:59:52.135Z,99.90
2018-10-09T07:02:21.756Z,99.90
2018-10-09T07:04:51.401Z,99.90
2018-10-09T07:07:21.084Z,99.90
2018-10-09T07:09:50.692Z,99.90
2018-10-09T07:12:20.397Z,99.90
2018-10-09T07:14:50.137Z,99.90
2018-10-09T07:17:19.706Z,99.90
2018-10-09T07:19:49.437Z,99.90
2018-10-09T07:22:19.159Z,99.90
2018-10-09T07:24:48.738Z,99.90
2018-10-09T07:27:18.548Z,99.90
2018-10-09T07:29:48.165Z,99.90
2018-10-09T07:32:17.863Z,99.90
2018-10-09T07:34:47.612Z,99.90
2018-10-09T07:37:17.316Z,99.90
2018-10-09T07:39:47.254Z,99.90
2018-10-09T07:42:17.694Z,99.90
2018-10-09T07:44:48.639Z,99.90
2018-10-09T07:47:19.449Z,99.90
2018-10-09T07:49:50.373Z,99.90
2018-10-09T07:52:21.019Z,99.90
2018-10-09T07:55:50.638Z,99.90
2018-10-09T07:58:20.258Z,99.90
2018-10-09T08:00:49.938Z,99.90
2018-10-09T08:03:19.550Z,99.90
2018-10-09T08:05:49.512Z,99.90
2018-10-09T08:08:19.370Z,99.90
2018-10-09T08:10:49.246Z,99.90
2018-10-09T08:13:19.842Z,99.90
2018-10-09T08:15:49.889Z,99.90
2018-10-09T08:18:19.759Z,99.90
2018-10-09T08:20:49.432Z,99.90
2018-10-09T08:23:19.355Z,99.90
2018-10-09T08:25:49.013Z,99.90
2018-10-09T08:28:18.674Z,99.90
2018-10-09T08:30:48.433Z,99.80
2018-10-09T08:33:18.113Z,99.80
2018-10-09T08:35:47.877Z,99.30
2018-10-09T08:38:17.494Z,99.30
2018-10-09T08:40:47.423Z,99.10
2018-10-09T08:43:17.133Z,98.80
2018-10-09T08:45:46.865Z,99.00
2018-10-09T08:48:16.629Z,99.20
2018-10-09T08:50:46.449Z,99.50
2018-10-09T08:53:16.318Z,99.50
2018-10-09T08:55:45.977Z,99.20
2018-10-09T08:58:15.874Z,99.20
2018-10-09T09:00:45.522Z,99.00
2018-10-09T09:03:15.217Z,98.60
2018-10-09T09:05:44.922Z,98.50
2018-10-09T09:08:14.709Z,98.40
2018-10-09T09:10:44.328Z,98.20
2018-10-09T09:13:14.099Z,98.60
2018-10-09T09:15:43.880Z,98.40
2018-10-09T09:18:13.708Z,98.10
2018-10-09T09:20:43.952Z,98.00
2018-10-09T09:23:13.825Z,97.40
2018-10-09T09:25:43.508Z,97.40
2018-10-09T09:28:13.281Z,97.50
2018-10-09T09:30:43.000Z,97.30
2018-10-09T09:33:12.858Z,97.40
2018-10-09T09:35:42.360Z,97.50
2018-10-09T09:38:11.908Z,97.40
2018-10-09T09:40:41.702Z,97.00
2018-10-09T09:43:11.309Z,97.00
2018-10-09T09:45:41.051Z,97.10
2018-10-09T09:48:10.979Z,96.70
2018-10-09T09:50:40.970Z,96.90
2018-10-09T09:53:10.719Z,96.50
2018-10-09T09:55:40.339Z,96.50
2018-10-09T09:58:10.242Z,96.70
2018-10-09T10:00:44.923Z,96.50
2018-10-09T10:03:14.531Z,96.20
2018-10-09T10:05:44.443Z,96.70
2018-10-09T10:08:14.111Z,96.90
2018-10-09T10:10:43.884Z,97.10
2018-10-09T10:13:13.510Z,97.30
2018-10-09T10:15:43.211Z,97.50
2018-10-09T10:18:13.050Z,97.50
2018-10-09T10:20:42.683Z,97.60
2018-10-09T10:23:12.329Z,97.40
2018-10-09T10:25:41.958Z,98.00
2018-10-09T10:28:11.662Z,97.90
2018-10-09T10:30:41.453Z,97.50
2018-10-09T10:33:12.286Z,97.70
2018-10-09T10:35:43.194Z,97.50
2018-10-09T10:38:12.733Z,97.90
2018-10-09T10:40:42.329Z,97.70
2018-10-09T10:43:11.991Z,98.00
2018-10-09T10:45:41.878Z,97.90
2018-10-09T10:48:11.628Z,97.90
2018-10-09T10:50:41.303Z,98.90
2018-10-09T10:53:11.129Z,98.10
2018-10-09T10:55:41.494Z,96.80
2018-10-09T10:58:11.328Z,96.50
2018-10-09T11:00:40.958Z,96.40
2018-10-09T11:03:10.584Z,95.80
2018-10-09T11:05:40.428Z,95.80
2018-10-09T11:08:10.186Z,95.40
2018-10-09T11:10:39.678Z,95.50
2018-10-09T11:13:09.404Z,95.30
2018-10-09T11:15:39.039Z,94.90
2018-10-09T11:18:09.015Z,94.40
2018-10-09T11:20:38.610Z,94.30
2018-10-09T11:23:08.438Z,94.50
2018-10-09T11:25:38.040Z,94.40
2018-10-09T11:28:08.173Z,94.30
2018-10-09T11:30:37.862Z,94.20
2018-10-09T11:33:07.660Z,93.90
2018-10-09T11:35:37.302Z,94.00
2018-10-09T11:38:06.838Z,93.60
2018-10-09T11:40:36.485Z,92.60
2018-10-09T11:43:06.539Z,92.50
2018-10-09T11:45:36.177Z,92.60
2018-10-09T11:48:05.790Z,92.10
2018-10-09T11:50:35.550Z,92.20
2018-10-09T11:53:05.353Z,91.90
2018-10-09T11:55:35.277Z,92.00
2018-10-09T11:58:05.068Z,91.60
2018-10-09T12:00:36.577Z,91.10
2018-10-09T12:03:06.564Z,91.00
2018-10-09T12:05:36.527Z,90.60
2018-10-09T12:08:06.198Z,90.40
2018-10-09T12:10:35.925Z,90.20
2018-10-09T12:13:05.495Z,89.40
2018-10-09T12:15:35.208Z,88.70
2018-10-09T12:18:04.865Z,86.80
2018-10-09T12:20:34.671Z,87.90
2018-10-09T12:23:04.328Z,88.50
2018-10-09T12:25:34.034Z,87.20
2018-10-09T12:28:03.604Z,85.90
2018-10-09T12:30:33.338Z,86.40
2018-10-09T12:33:03.276Z,84.70
2018-10-09T12:35:33.183Z,85.40
2018-10-09T12:38:03.249Z,85.60
2018-10-09T12:40:33.320Z,86.10
2018-10-09T12:43:02.933Z,86.80
2018-10-09T12:45:32.764Z,86.50
2018-10-09T12:48:02.442Z,86.40
2018-10-09T12:50:32.110Z,86.70
2018-10-09T12:53:01.841Z,87.50
2018-10-09T12:55:32.388Z,87.70
2018-10-09T12:58:02.131Z,88.20
2018-10-09T13:00:31.922Z,88.70
2018-10-09T13:03:02.285Z,88.30
2018-10-09T13:05:31.994Z,87.20
2018-10-09T13:08:02.317Z,87.40
2018-10-09T13:10:31.969Z,87.20
2018-10-09T13:13:02.040Z,86.90
2018-10-09T13:15:32.102Z,86.10
2018-10-09T13:18:02.264Z,84.50
2018-10-09T13:20:32.227Z,84.50
2018-10-09T13:23:02.449Z,83.40
2018-10-09T13:25:32.414Z,83.40
2018-10-09T13:28:02.289Z,83.50
2018-10-09T13:30:32.618Z,82.90
2018-10-09T13:33:02.627Z,82.30
2018-10-09T13:35:32.495Z,80.80
2018-10-09T13:38:02.755Z,81.50
2018-10-09T13:40:32.613Z,81.10
2018-10-09T13:43:02.882Z,81.40
2018-10-09T13:45:32.783Z,81.60
2018-10-09T13:48:02.905Z,80.70
2018-10-09T13:50:32.986Z,80.70
2018-10-09T13:53:02.968Z,80.30
2018-10-09T13:55:32.560Z,80.90
2018-10-09T13:58:02.313Z,79.30
2018-10-09T14:00:32.220Z,80.10
2018-10-09T14:03:01.995Z,80.40
2018-10-09T14:05:31.597Z,80.50
2018-10-09T14:08:01.469Z,80.40
2018-10-09T14:10:31.277Z,81.00
2018-10-09T14:13:01.329Z,80.00
2018-10-09T14:15:31.018Z,79.60
2018-10-09T14:18:00.864Z,79.60
2018-10-09T14:20:30.819Z,78.30
2018-10-09T14:23:00.694Z,77.20
2018-10-09T14:25:30.509Z,77.20
2018-10-09T14:28:00.121Z,77.60
2018-10-09T14:30:29.734Z,77.70
2018-10-09T14:32:59.387Z,77.10
2018-10-09T14:35:29.109Z,77.60
2018-10-09T14:37:58.754Z,78.10
2018-10-09T14:40:28.460Z,78.20
2018-10-09T14:42:58.034Z,78.60
2018-10-09T14:45:27.714Z,78.70
2018-10-09T14:47:57.503Z,79.10
2018-10-09T14:50:27.284Z,78.90
2018-10-09T14:52:56.983Z,78.60
2018-10-09T14:55:27.556Z,78.40
2018-10-09T14:57:57.473Z,77.80
2018-10-09T15:00:27.144Z,77.00
2018-10-09T15:02:56.694Z,77.00
2018-10-09T15:05:26.355Z,77.50
2018-10-09T15:07:56.265Z,78.60
2018-10-09T15:10:26.223Z,82.10
2018-10-09T15:12:56.165Z,83.30
2018-10-09T15:15:26.645Z,84.10
2018-10-09T15:17:56.283Z,84.70
2018-10-09T15:20:26.027Z,85.40
2018-10-09T15:22:55.818Z,85.80
2018-10-09T15:25:25.465Z,86.60
2018-10-09T15:27:55.084Z,87.00
2018-10-09T15:30:24.863Z,87.30
2018-10-09T15:32:54.659Z,87.60
2018-10-09T15:35:24.488Z,88.30
2018-10-09T15:37:54.123Z,89.00
2018-10-09T15:40:24.037Z,88.70
2018-10-09T15:42:53.741Z,89.00
2018-10-09T15:45:23.662Z,90.00
2018-10-09T15:47:53.984Z,90.20
2018-10-09T15:50:23.765Z,90.50
2018-10-09T15:52:53.786Z,90.80
2018-10-09T15:55:23.618Z,91.20
2018-10-09T15:57:53.445Z,91.80
2018-10-09T16:00:23.006Z,92.20
2018-10-09T16:02:53.115Z,92.40
2018-10-09T16:05:22.936Z,92.70
2018-10-09T16:07:52.677Z,93.00
2018-10-09T16:10:22.589Z,93.20
2018-10-09T16:12:52.361Z,93.50
2018-10-09T16:15:22.260Z,93.80
2018-10-09T16:17:52.120Z,94.30
2018-10-09T16:20:21.864Z,95.10
2018-10-09T16:22:51.650Z,95.70
2018-10-09T16:25:21.380Z,95.90
2018-10-09T16:27:51.249Z,96.40
2018-10-09T16:30:20.991Z,96.60
2018-10-09T16:32:51.071Z,96.80
2018-10-09T16:35:20.903Z,97.10
2018-10-09T16:37:50.714Z,97.30
2018-10-09T16:40:20.518Z,97.30
2018-10-09T16:42:50.273Z,97.20
2018-10-09T16:45:20.356Z,97.30
2018-10-09T16:47:50.228Z,97.40
2018-10-09T16:50:20.336Z,97.70
2018-10-09T16:52:50.143Z,97.80
2018-10-09T16:55:19.956Z,98.20
2018-10-09T16:57:49.844Z,98.50
2018-10-09T17:00:19.700Z,98.70
2018-10-09T17:02:49.617Z,98.80
2018-10-09T17:05:19.572Z,98.90
2018-10-09T17:07:49.267Z,98.90
2018-10-09T17:10:19.134Z,99.00
2018-10-09T17:12:48.980Z,99.10
2018-10-09T17:15:18.704Z,99.10
2018-10-09T17:17:48.275Z,99.10
2018-10-09T17:20:18.197Z,99.30
2018-10-09T17:22:47.934Z,99.20
2018-10-09T17:25:17.665Z,99.30
2018-10-09T17:27:47.472Z,99.40
2018-10-09T17:30:17.324Z,99.40
2018-10-09T17:32:46.978Z,99.30
2018-10-09T17:35:17.030Z,99.50
2018-10-09T17:37:47.200Z,99.60
2018-10-09T17:40:16.900Z,99.90
2018-10-09T17:42:46.659Z,99.90
2018-10-09T17:45:16.588Z,99.90
2018-10-09T17:47:46.434Z,99.70
2018-10-09T17:50:16.395Z,99.80
2018-10-09T17:52:46.166Z,99.80
2018-10-09T17:55:15.916Z,97.60
2018-10-09T17:57:46.474Z,97.50
2018-10-09T18:00:16.155Z,97.40
2018-10-09T18:02:46.052Z,97.50
2018-10-09T18:05:15.919Z,97.50
2018-10-09T18:07:45.535Z,97.70
2018-10-09T18:10:15.235Z,97.50
2018-10-09T18:12:45.220Z,97.30
2018-10-09T18:15:15.726Z,97.50
2018-10-09T18:17:45.836Z,97.80
2018-10-09T18:20:15.489Z,98.30
2018-10-09T18:22:45.310Z,98.50
2018-10-09T18:25:15.156Z,98.60
2018-10-09T18:27:44.750Z,99.00
2018-10-09T18:30:14.481Z,99.20
2018-10-09T18:32:44.667Z,99.20
2018-10-09T18:35:14.280Z,99.60
2018-10-09T18:37:43.961Z,99.80
2018-10-09T18:40:13.701Z,99.70
2018-10-09T18:42:43.366Z,99.70
2018-10-09T18:45:13.086Z,99.90
2018-10-09T18:47:44.794Z,99.90
2018-10-09T18:50:14.728Z,99.90
2018-10-09T18:52:44.484Z,99.90
2018-10-09T18:55:15.957Z,99.90
2018-10-09T18:57:46.270Z,99.90
2018-10-09T19:00:16.280Z,99.90
2018-10-09T19:02:46.195Z,99.90
2018-10-09T19:05:16.251Z,99.90
2018-10-09T19:07:46.241Z,99.90
2018-10-09T19:10:16.129Z,99.90
2018-10-09T19:12:46.022Z,99.90
2018-10-09T19:15:15.984Z,99.90
2018-10-09T19:17:45.810Z,99.90
2018-10-09T19:20:16.065Z,99.90
2018-10-09T19:22:46.060Z,99.90
2018-10-09T19:25:16.216Z,99.90
2018-10-09T19:27:46.171Z,99.90
2018-10-09T19:32:51.175Z,99.90
2018-10-09T19:35:21.225Z,99.90
2018-10-09T19:37:51.450Z,99.90
2018-10-09T19:40:21.422Z,99.90
2018-10-09T19:42:51.304Z,99.90
2018-10-09T19:45:21.321Z,99.90
2018-10-09T19:47:51.099Z,99.90
2018-10-09T19:50:20.786Z,99.90
2018-10-09T19:52:50.487Z,99.90
2018-10-09T19:55:20.405Z,99.90
2018-10-09T19:57:50.194Z,99.90
2018-10-09T20:00:20.174Z,99.90
2018-10-09T20:02:50.215Z,99.90
2018-10-09T20:05:19.914Z,99.90
2018-10-09T20:07:50.088Z,99.90
2018-10-09T20:10:19.972Z,99.90
2018-10-09T20:12:49.700Z,99.90
2018-10-09T20:15:19.522Z,99.90
2018-10-09T20:17:49.246Z,99.90
2018-10-09T20:20:19.076Z,99.90
2018-10-09T20:22:49.148Z,99.90
2018-10-09T20:25:18.991Z,99.90
2018-10-09T20:27:48.721Z,99.90
2018-10-09T20:30:18.491Z,99.90
2018-10-09T20:32:48.433Z,99.90
2018-10-09T20:35:18.167Z,99.90
2018-10-09T20:37:48.411Z,99.90
2018-10-09T20:40:18.541Z,99.90
2018-10-09T20:42:48.940Z,99.90
2018-10-09T20:45:18.638Z,99.90
2018-10-09T20:47:48.509Z,99.90
2018-10-09T20:50:18.323Z,99.90
2018-10-09T20:52:48.060Z,99.90
2018-10-09T20:55:18.347Z,99.90
2018-10-09T20:57:49.303Z,99.90
2018-10-09T21:00:20.297Z,99.90
2018-10-09T21:07:48.323Z,99.90
2018-10-09T21:10:18.868Z,99.90
2018-10-09T21:12:48.790Z,99.90
2018-10-09T21:15:20.129Z,99.90
2018-10-09T21:17:50.224Z,99.90
2018-10-09T21:20:19.853Z,99.90
2018-10-09T21:22:49.872Z,99.90
2018-10-09T21:25:19.837Z,99.90
2018-10-09T21:27:50.238Z,99.90
2018-10-09T21:30:20.400Z,99.90
2018-10-09T21:32:50.508Z,99.90
2018-10-09T21:35:20.750Z,99.90
2018-10-09T21:37:50.398Z,99.90
2018-10-09T21:40:20.991Z,99.90
2018-10-09T21:42:50.713Z,99.90
2018-10-09T21:45:20.258Z,99.90
2018-10-09T21:47:55.217Z,99.90
2018-10-09T21:50:26.746Z,99.90
2018-10-09T21:52:56.875Z,99.90
2018-10-09T21:55:27.047Z,99.90
2018-10-09T21:57:57.504Z,99.90
2018-10-09T22:00:27.278Z,99.90
2018-10-09T22:02:56.901Z,99.90
2018-10-09T22:05:26.586Z,99.90
2018-10-09T22:07:56.366Z,99.90
2018-10-09T22:10:26.033Z,99.90
2018-10-09T22:12:55.549Z,99.90
2018-10-09T22:15:25.201Z,99.90
2018-10-09T22:17:55.106Z,99.90
2018-10-09T22:20:24.700Z,99.90
2018-10-09T22:22:54.473Z,99.90
2018-10-09T22:25:24.145Z,99.90
2018-10-09T22:27:53.854Z,99.90
2018-10-09T22:30:23.608Z,99.90
2018-10-09T22:32:53.295Z,99.90
2018-10-09T22:35:23.313Z,99.90
2018-10-09T22:42:49.440Z,99.90
2018-10-09T22:45:18.999Z,99.90
2018-10-09T22:47:49.040Z,99.90
2018-10-09T22:50:18.805Z,99.90
2018-10-09T22:52:48.332Z,99.90
2018-10-09T22:55:18.004Z,99.90
2018-10-09T22:57:47.797Z,99.90
2018-10-09T23:00:17.620Z,99.90
2018-10-09T23:02:47.161Z,99.90
2018-10-09T23:05:16.680Z,99.90
2018-10-09T23:07:46.548Z,99.90
2018-10-09T23:10:16.375Z,99.90
2018-10-09T23:12:45.891Z,99.90
2018-10-09T23:15:15.722Z,99.90
2018-10-09T23:17:45.557Z,99.90
2018-10-09T23:20:15.091Z,99.90
2018-10-09T23:22:44.678Z,99.90
2018-10-09T23:25:14.239Z,99.90
2018-10-09T23:27:43.875Z,99.90
2018-10-09T23:30:13.432Z,99.90
2018-10-09T23:32:42.980Z,99.90
2018-10-09T23:35:13.724Z,99.90
2018-10-09T23:37:43.271Z,99.90
2018-10-09T23:40:12.915Z,99.90
2018-10-09T23:42:42.492Z,99.90
2018-10-09T23:45:12.121Z,99.90
2018-10-09T23:47:41.824Z,99.90
2018-10-09T23:50:12.702Z,99.90
2018-10-09T23:52:42.206Z,99.90
2018-10-09T23:55:11.409Z,99.90
2018-10-09T23:57:41.071Z,99.90
